createdAt,value
2018-11-04T00:01:06.038Z,18.07
2018-11-04T00:03:35.198Z,17.50
2018-11-04T00:06:04.855Z,17.77
2018-11-04T00:08:33.966Z,17.70
2018-11-04T00:11:03.844Z,17.97
2018-11-04T00:13:32.836Z,18.27
2018-11-04T00:16:01.951Z,17.93
2018-11-04T00:18:31.216Z,19.27
2018-11-04T00:21:00.206Z,18.27
2018-11-04T00:23:29.247Z,18.03
2018-11-04T00:25:58.255Z,18.17
2018-11-04T00:28:29.024Z,17.37
2018-11-04T00:30:58.071Z,18.30
2018-11-04T00:33:27.117Z,20.07
2018-11-04T00:35:56.526Z,18.10
2018-11-04T00:38:25.537Z,20.67
2018-11-04T00:40:54.635Z,19.23
2018-11-04T00:43:23.741Z,18.67
2018-11-04T00:45:52.740Z,18.83
2018-11-04T00:48:22.123Z,19.17
2018-11-04T00:50:52.421Z,19.13
2018-11-04T00:53:21.473Z,19.10
2018-11-04T00:55:55.142Z,19.10
2018-11-04T00:58:25.660Z,18.87
2018-11-04T01:00:54.986Z,18.10
2018-11-04T01:03:24.032Z,19.40
2018-11-04T01:05:53.094Z,19.27
2018-11-04T01:08:22.052Z,19.60
2018-11-04T01:10:51.175Z,20.37
2018-11-04T01:13:20.201Z,20.87
2018-11-04T01:15:49.955Z,19.33
2018-11-04T01:18:18.949Z,19.27
2018-11-04T01:20:49.168Z,19.07
2018-11-04T01:23:18.145Z,18.87
2018-11-04T01:25:47.853Z,18.97
2018-11-04T01:28:16.972Z,19.17
2018-11-04T01:30:46.235Z,18.33
2018-11-04T01:33:15.258Z,18.57
2018-11-04T01:35:44.332Z,18.80
2018-11-04T01:38:13.970Z,18.70
2018-11-04T01:40:42.959Z,19.17
2018-11-04T01:43:11.981Z,18.77
2018-11-04T01:45:40.951Z,18.93
2018-11-04T01:48:10.274Z,19.43
2018-11-04T01:50:39.321Z,18.83
2018-11-04T01:53:08.358Z,19.57
2018-11-04T01:55:37.522Z,18.70
2018-11-04T01:58:06.507Z,20.47
2018-11-04T02:00:35.588Z,20.17
2018-11-04T02:03:04.601Z,20.07
2018-11-04T02:05:33.607Z,17.97
2018-11-04T02:08:02.624Z,19.60
2018-11-04T02:10:31.608Z,18.83
2018-11-04T02:13:01.109Z,18.63
2018-11-04T02:15:30.110Z,19.50
2018-11-04T02:17:59.373Z,19.87
2018-11-04T02:20:28.483Z,20.67
2018-11-04T02:22:57.480Z,19.57
2018-11-04T02:25:26.521Z,18.63
2018-11-04T02:27:55.679Z,18.33
2018-11-04T02:30:24.742Z,18.93
2018-11-04T02:32:55.671Z,19.00
2018-11-04T02:35:24.706Z,20.37
2018-11-04T02:37:54.467Z,19.10
2018-11-04T02:40:23.569Z,20.60
2018-11-04T02:42:52.595Z,19.03
2018-11-04T02:45:21.573Z,18.20
2018-11-04T02:47:50.559Z,20.33
2018-11-04T02:50:21.153Z,20.03
2018-11-04T02:52:50.151Z,19.53
2018-11-04T02:55:19.172Z,20.23
2018-11-04T02:57:48.188Z,21.33
2018-11-04T03:00:17.199Z,20.17
2018-11-04T03:02:46.294Z,19.40
2018-11-04T03:05:15.343Z,19.13
2018-11-04T03:07:44.259Z,20.47
2018-11-04T03:10:14.055Z,20.20
2018-11-04T03:12:43.807Z,21.57
2018-11-04T03:15:12.814Z,26.77
2018-11-04T03:17:42.115Z,26.73
2018-11-04T03:20:11.068Z,22.00
2018-11-04T03:22:40.069Z,22.07
2018-11-04T03:25:09.052Z,26.87
2018-11-04T03:27:38.042Z,28.20
2018-11-04T03:30:08.008Z,25.57
2018-11-04T03:32:36.967Z,22.57
2018-11-04T03:35:06.835Z,24.00
2018-11-04T03:37:35.863Z,20.57
2018-11-04T03:40:07.346Z,20.73
2018-11-04T03:42:36.500Z,22.07
2018-11-04T03:45:06.263Z,20.77
2018-11-04T03:47:35.286Z,20.43
2018-11-04T03:50:06.944Z,20.63
2018-11-04T03:52:35.979Z,20.73
2018-11-04T03:55:06.536Z,20.70
2018-11-04T03:57:36.495Z,22.20
2018-11-04T04:00:06.337Z,21.30
2018-11-04T04:02:35.361Z,22.20
2018-11-04T04:05:05.078Z,21.00
2018-11-04T04:07:34.225Z,21.53
2018-11-04T04:10:03.299Z,21.07
2018-11-04T04:12:32.579Z,20.17
2018-11-04T04:15:01.700Z,20.63
2018-11-04T04:17:30.926Z,21.70
2018-11-04T04:20:00.028Z,20.80
2018-11-04T04:22:29.139Z,20.20
2018-11-04T04:24:58.164Z,20.50
2018-11-04T04:27:27.246Z,20.47
2018-11-04T04:29:56.289Z,20.37
2018-11-04T04:32:25.328Z,19.80
2018-11-04T04:34:54.475Z,21.70
2018-11-04T04:37:23.713Z,21.07
2018-11-04T04:39:52.884Z,19.80
2018-11-04T04:42:21.977Z,20.43
2018-11-04T04:44:50.931Z,19.67
2018-11-04T04:47:19.992Z,20.63
2018-11-04T04:49:49.279Z,21.20
2018-11-04T04:52:18.374Z,22.17
2018-11-04T04:54:47.316Z,21.73
2018-11-04T04:57:16.255Z,21.87
2018-11-04T04:59:45.249Z,20.50
2018-11-04T05:02:14.524Z,20.60
2018-11-04T05:04:43.520Z,23.10
2018-11-04T05:07:12.481Z,19.87
2018-11-04T05:09:41.511Z,22.87
2018-11-04T05:12:10.468Z,21.20
2018-11-04T05:14:39.424Z,22.37
2018-11-04T05:17:08.438Z,21.70
2018-11-04T05:19:37.506Z,21.27
2018-11-04T05:22:06.764Z,21.30
2018-11-04T05:24:35.824Z,22.20
2018-11-04T05:27:05.126Z,20.57
2018-11-04T05:29:34.274Z,21.07
2018-11-04T05:32:03.335Z,20.67
2018-11-04T05:34:32.347Z,20.40
2018-11-04T05:37:01.529Z,21.10
2018-11-04T05:39:30.553Z,21.50
2018-11-04T05:41:59.619Z,21.17
2018-11-04T05:44:28.641Z,20.87
2018-11-04T05:46:57.656Z,19.83
2018-11-04T05:49:26.767Z,21.57
2018-11-04T05:51:55.783Z,19.83
2018-11-04T05:54:24.867Z,21.37
2018-11-04T05:56:53.967Z,21.73
2018-11-04T05:59:23.000Z,19.60
2018-11-04T06:01:52.018Z,20.17
2018-11-04T06:04:21.128Z,20.67
2018-11-04T06:06:50.226Z,22.43
2018-11-04T06:09:19.526Z,20.23
2018-11-04T06:11:48.704Z,20.27
2018-11-04T06:14:17.699Z,21.40
2018-11-04T06:16:46.988Z,21.40
2018-11-04T06:19:16.154Z,22.50
2018-11-04T06:21:45.256Z,21.73
2018-11-04T06:24:14.786Z,21.00
2018-11-04T06:26:43.951Z,23.10
2018-11-04T06:29:14.526Z,21.27
2018-11-04T06:31:43.759Z,21.53
2018-11-04T06:34:12.842Z,22.13
2018-11-04T06:36:42.212Z,21.20
2018-11-04T06:39:11.312Z,21.73
2018-11-04T06:41:40.439Z,22.23
2018-11-04T06:44:09.603Z,20.20
2018-11-04T06:46:38.669Z,21.97
2018-11-04T06:49:07.787Z,21.70
2018-11-04T06:51:36.874Z,23.50
2018-11-04T06:54:06.119Z,20.87
2018-11-04T06:56:35.215Z,22.40
2018-11-04T06:59:04.536Z,21.57
2018-11-04T07:01:33.726Z,21.07
2018-11-04T07:04:14.193Z,22.00
2018-11-04T07:06:43.307Z,20.97
2018-11-04T07:09:13.257Z,22.00
2018-11-04T07:11:42.361Z,19.90
2018-11-04T07:14:11.594Z,20.90
2018-11-04T07:16:40.790Z,21.33
2018-11-04T07:19:10.812Z,21.47
2018-11-04T07:21:39.977Z,21.27
2018-11-04T07:24:09.473Z,23.00
2018-11-04T07:26:38.570Z,20.90
2018-11-04T07:29:08.493Z,21.43
2018-11-04T07:31:37.567Z,21.63
2018-11-04T07:34:06.803Z,26.73
2018-11-04T07:36:35.990Z,22.87
2018-11-04T07:39:08.846Z,25.13
2018-11-04T07:41:37.983Z,23.67
2018-11-04T07:44:07.180Z,22.50
2018-11-04T07:46:36.237Z,23.30
2018-11-04T07:49:05.815Z,23.93
2018-11-04T07:51:34.973Z,22.00
2018-11-04T07:54:04.105Z,23.33
2018-11-04T07:56:33.260Z,22.60
2018-11-04T07:59:02.400Z,24.23
2018-11-04T08:01:32.470Z,23.70
2018-11-04T08:04:01.702Z,21.57
2018-11-04T08:06:31.284Z,22.50
2018-11-04T08:09:00.499Z,22.10
2018-11-04T08:11:29.767Z,20.63
2018-11-04T08:13:58.768Z,21.60
2018-11-04T08:16:27.888Z,22.17
2018-11-04T08:18:57.054Z,21.83
2018-11-04T08:21:26.320Z,18.03
2018-11-04T08:23:55.413Z,21.23
2018-11-04T08:26:24.515Z,20.17
2018-11-04T08:28:53.617Z,22.20
2018-11-04T08:31:22.695Z,21.47
2018-11-04T08:33:51.997Z,21.87
2018-11-04T08:36:21.331Z,21.17
2018-11-04T08:38:50.381Z,21.97
2018-11-04T08:41:19.579Z,22.10
2018-11-04T08:43:48.631Z,23.47
2018-11-04T08:46:17.668Z,22.80
2018-11-04T08:48:46.641Z,21.33
2018-11-04T08:51:15.774Z,19.07
2018-11-04T08:53:46.596Z,19.53
2018-11-04T08:56:15.859Z,22.90
2018-11-04T08:58:44.884Z,19.47
2018-11-04T09:01:14.074Z,20.47
2018-11-04T09:03:43.171Z,21.27
2018-11-04T09:06:12.198Z,22.20
2018-11-04T09:08:41.445Z,20.93
2018-11-04T09:11:10.583Z,19.80
2018-11-04T09:13:39.729Z,19.37
2018-11-04T09:16:08.828Z,19.80
2018-11-04T09:18:38.059Z,21.33
2018-11-04T09:21:07.393Z,19.83
2018-11-04T09:23:36.858Z,21.10
2018-11-04T09:26:06.287Z,22.27
2018-11-04T09:28:35.626Z,23.87
2018-11-04T09:31:04.730Z,21.27
2018-11-04T09:33:33.971Z,19.60
2018-11-04T09:36:03.092Z,21.17
2018-11-04T09:38:32.189Z,19.77
2018-11-04T09:41:01.346Z,22.53
2018-11-04T09:43:30.407Z,21.77
2018-11-04T09:45:59.609Z,20.67
2018-11-04T09:48:28.689Z,20.73
2018-11-04T09:50:57.763Z,19.83
2018-11-04T09:53:26.948Z,22.37
2018-11-04T09:55:57.714Z,20.87
2018-11-04T09:58:26.875Z,21.30
2018-11-04T10:00:56.274Z,22.07
2018-11-04T10:03:25.389Z,21.13
2018-11-04T10:05:54.587Z,22.60
2018-11-04T10:08:23.721Z,21.40
2018-11-04T10:10:52.826Z,30.20
2018-11-04T10:13:21.877Z,22.43
2018-11-04T10:15:50.960Z,23.37
2018-11-04T10:18:20.148Z,22.70
2018-11-04T10:20:49.611Z,23.10
2018-11-04T10:23:18.276Z,21.70
2018-11-04T10:25:47.365Z,19.63
2018-11-04T10:28:16.496Z,20.80
2018-11-04T10:30:45.564Z,20.83
2018-11-04T10:33:14.658Z,20.97
2018-11-04T10:35:43.724Z,22.60
2018-11-04T10:38:12.794Z,20.27
2018-11-04T10:40:41.913Z,17.43
2018-11-04T10:43:10.969Z,21.40
2018-11-04T10:45:40.156Z,17.47
2018-11-04T10:48:09.186Z,17.17
2018-11-04T10:50:38.433Z,18.07
2018-11-04T10:53:07.489Z,18.17
2018-11-04T10:55:36.778Z,16.13
2018-11-04T10:58:05.778Z,16.30
2018-11-04T11:00:43.031Z,16.50
2018-11-04T11:03:12.060Z,17.27
2018-11-04T11:05:41.906Z,16.53
2018-11-04T11:08:10.885Z,17.67
2018-11-04T11:10:39.859Z,18.60
2018-11-04T11:13:09.227Z,17.00
2018-11-04T11:15:38.312Z,17.20
2018-11-04T11:18:07.404Z,17.53
2018-11-04T11:20:36.483Z,17.63
2018-11-04T11:23:06.155Z,19.73
2018-11-04T11:25:35.278Z,18.33
2018-11-04T11:28:04.398Z,19.57
2018-11-04T11:30:33.493Z,19.70
2018-11-04T11:33:02.524Z,17.33
2018-11-04T11:35:37.256Z,18.67
2018-11-04T11:38:06.799Z,18.90
2018-11-04T11:40:36.626Z,19.10
2018-11-04T11:43:05.723Z,17.07
2018-11-04T11:45:34.819Z,18.80
2018-11-04T11:48:03.839Z,16.90
2018-11-04T11:50:33.200Z,17.53
2018-11-04T11:53:02.180Z,18.60
2018-11-04T11:55:31.642Z,19.23
2018-11-04T11:58:00.665Z,19.23
2018-11-04T12:00:29.744Z,17.97
2018-11-04T12:02:58.955Z,18.43
2018-11-04T12:05:28.003Z,18.90
2018-11-04T12:07:57.207Z,17.93
2018-11-04T12:10:26.219Z,18.63
2018-11-04T12:12:55.305Z,18.23
2018-11-04T12:15:25.395Z,18.50
2018-11-04T12:17:55.339Z,16.10
2018-11-04T12:20:24.411Z,18.40
2018-11-04T12:22:53.540Z,17.90
2018-11-04T12:25:22.658Z,17.50
2018-11-04T12:27:51.679Z,17.20
2018-11-04T12:30:21.477Z,18.63
2018-11-04T12:32:50.495Z,18.50
2018-11-04T12:35:19.570Z,19.53
2018-11-04T12:37:48.572Z,16.57
2018-11-04T12:40:17.611Z,16.90
2018-11-04T12:42:46.690Z,17.03
2018-11-04T12:45:16.425Z,15.23
2018-11-04T12:47:45.490Z,17.67
2018-11-04T12:50:14.571Z,15.50
2018-11-04T12:52:43.711Z,14.67
2018-11-04T12:55:12.752Z,15.30
2018-11-04T12:57:41.793Z,17.77
2018-11-04T13:00:13.885Z,15.17
2018-11-04T13:02:44.001Z,16.27
2018-11-04T13:05:13.164Z,15.67
2018-11-04T13:07:42.340Z,16.57
2018-11-04T13:10:12.755Z,13.97
2018-11-04T13:12:41.866Z,17.20
2018-11-04T13:15:12.406Z,14.67
2018-11-04T13:17:42.965Z,15.37
2018-11-04T13:20:12.295Z,15.00
2018-11-04T13:22:41.418Z,15.90
2018-11-04T13:25:10.826Z,14.73
2018-11-04T13:27:39.879Z,12.97
2018-11-04T13:30:10.412Z,14.20
2018-11-04T13:32:39.560Z,13.13
2018-11-04T13:35:08.743Z,12.60
2018-11-04T13:37:37.887Z,11.87
2018-11-04T13:40:08.348Z,9.50
2018-11-04T13:42:37.508Z,8.30
2018-11-04T13:45:07.314Z,6.93
2018-11-04T13:47:36.751Z,7.13
2018-11-04T13:50:07.922Z,7.90
2018-11-04T13:52:37.102Z,6.60
2018-11-04T13:55:07.150Z,6.90
2018-11-04T13:57:36.304Z,7.37
2018-11-04T14:00:07.186Z,6.87
2018-11-04T14:02:36.292Z,6.53
2018-11-04T14:05:06.397Z,6.43
2018-11-04T14:07:35.565Z,6.37
2018-11-04T14:10:05.097Z,6.30
2018-11-04T14:12:34.335Z,6.30
2018-11-04T14:15:04.451Z,6.27
2018-11-04T14:17:33.698Z,6.17
2018-11-04T14:20:02.884Z,6.50
2018-11-04T14:22:32.019Z,6.27
2018-11-04T14:25:01.166Z,6.50
2018-11-04T14:27:30.947Z,6.13
2018-11-04T14:29:59.966Z,6.57
2018-11-04T14:32:29.343Z,5.60
2018-11-04T14:34:58.491Z,5.10
2018-11-04T14:37:28.196Z,5.33
2018-11-04T14:39:57.293Z,5.93
2018-11-04T14:42:26.997Z,5.53
2018-11-04T14:44:56.203Z,5.40
2018-11-04T14:47:25.758Z,5.73
2018-11-04T14:49:54.775Z,5.50
2018-11-04T14:52:23.851Z,5.40
2018-11-04T14:54:52.795Z,5.50
2018-11-04T14:57:21.813Z,5.60
2018-11-04T14:59:50.958Z,5.53
2018-11-04T15:02:19.882Z,5.23
2018-11-04T15:04:48.873Z,5.30
2018-11-04T15:07:18.052Z,5.03
2018-11-04T15:09:47.340Z,5.70
2018-11-04T15:12:16.504Z,5.30
2018-11-04T15:14:45.597Z,5.93
2018-11-04T15:17:14.798Z,5.40
2018-11-04T15:19:43.817Z,5.80
2018-11-04T15:22:12.912Z,6.27
2018-11-04T15:24:41.930Z,6.40
2018-11-04T15:27:11.089Z,6.07
2018-11-04T15:29:41.236Z,5.70
2018-11-04T15:32:10.314Z,5.67
2018-11-04T15:34:39.836Z,6.80
2018-11-04T15:37:08.771Z,6.10
2018-11-04T15:39:38.541Z,6.00
2018-11-04T15:42:07.628Z,5.67
2018-11-04T15:44:36.796Z,6.33
2018-11-04T15:47:06.006Z,6.33
2018-11-04T15:49:35.771Z,5.77
2018-11-04T15:52:04.955Z,7.00
2018-11-04T15:54:33.991Z,5.97
2018-11-04T15:57:08.586Z,6.17
2018-11-04T15:59:37.728Z,7.13
2018-11-04T16:02:06.837Z,6.67
2018-11-04T16:04:44.546Z,6.40
2018-11-04T16:07:05.570Z,7.30
2018-11-04T16:09:41.277Z,5.97
2018-11-04T16:12:10.936Z,7.00
2018-11-04T16:14:40.467Z,7.03
2018-11-04T16:17:10.204Z,7.87
2018-11-04T16:19:39.361Z,7.90
2018-11-04T16:22:08.372Z,7.00
2018-11-04T16:24:37.449Z,7.80
2018-11-04T16:27:06.481Z,7.67
2018-11-04T16:29:36.212Z,8.07
2018-11-04T16:32:05.432Z,9.60
2018-11-04T16:34:34.486Z,10.10
2018-11-04T16:37:03.628Z,9.00
2018-11-04T16:39:32.772Z,8.53
2018-11-04T16:42:01.854Z,9.07
2018-11-04T16:44:30.885Z,9.20
2018-11-04T16:46:59.790Z,8.50
2018-11-04T16:49:28.792Z,8.53
2018-11-04T16:51:57.777Z,8.27
2018-11-04T16:54:26.742Z,7.40
2018-11-04T16:56:56.009Z,7.80
2018-11-04T16:59:25.653Z,8.27
2018-11-04T17:01:54.908Z,7.03
2018-11-04T17:04:24.041Z,8.70
2018-11-04T17:06:52.869Z,7.63
2018-11-04T17:09:21.955Z,9.30
2018-11-04T17:11:51.108Z,8.90
2018-11-04T17:14:20.111Z,8.23
2018-11-04T17:16:49.209Z,8.60
2018-11-04T17:19:18.211Z,8.43
2018-11-04T17:21:47.235Z,7.53
2018-11-04T17:24:16.312Z,9.00
2018-11-04T17:26:45.287Z,8.20
2018-11-04T17:29:14.266Z,9.13
2018-11-04T17:31:43.819Z,8.47
2018-11-04T17:34:12.816Z,9.97
2018-11-04T17:36:41.857Z,9.40
2018-11-04T17:39:12.190Z,9.60
2018-11-04T17:41:41.581Z,8.33
2018-11-04T17:44:11.002Z,8.07
2018-11-04T17:46:40.033Z,7.47
2018-11-04T17:49:09.610Z,8.37
2018-11-04T17:51:39.345Z,8.17
2018-11-04T17:54:08.567Z,8.03
2018-11-04T17:56:38.323Z,7.87
2018-11-04T17:59:07.367Z,8.83
2018-11-04T18:01:36.515Z,9.50
2018-11-04T18:04:08.236Z,8.40
2018-11-04T18:06:37.492Z,7.93
2018-11-04T18:09:08.645Z,8.43
2018-11-04T18:11:37.821Z,7.83
2018-11-04T18:14:07.195Z,7.70
2018-11-04T18:19:14.324Z,8.40
2018-11-04T18:21:43.391Z,8.20
2018-11-04T18:24:13.256Z,8.23
2018-11-04T18:26:42.236Z,8.07
2018-11-04T18:29:11.197Z,8.40
2018-11-04T18:31:40.350Z,8.00
2018-11-04T18:34:09.484Z,9.03
2018-11-04T18:36:38.542Z,9.10
2018-11-04T18:39:08.363Z,9.10
2018-11-04T18:41:37.889Z,9.03
2018-11-04T18:44:07.224Z,8.47
2018-11-04T18:46:36.393Z,8.77
2018-11-04T18:49:05.780Z,9.57
2018-11-04T18:51:35.011Z,9.60
2018-11-04T18:54:04.256Z,8.70
2018-11-04T18:56:33.433Z,11.33
2018-11-04T18:59:02.649Z,10.87
2018-11-04T19:01:31.567Z,9.27
2018-11-04T19:04:00.645Z,10.40
2018-11-04T19:06:29.922Z,9.70
2018-11-04T19:08:58.926Z,9.33
2018-11-04T19:11:28.256Z,10.60
2018-11-04T19:13:57.289Z,9.73
2018-11-04T19:16:26.318Z,11.67
2018-11-04T19:18:55.461Z,11.10
2018-11-04T19:21:24.402Z,11.13
2018-11-04T19:23:53.505Z,9.03
2018-11-04T19:26:22.511Z,9.80
2018-11-04T19:31:31.176Z,10.13
2018-11-04T19:34:00.183Z,10.63
2018-11-04T19:36:29.498Z,10.13
2018-11-04T19:38:58.527Z,9.37
2018-11-04T19:41:27.631Z,10.50
2018-11-04T19:43:56.757Z,12.10
2018-11-04T19:46:25.903Z,12.33
2018-11-04T19:48:54.983Z,11.13
2018-11-04T19:51:24.081Z,12.17
2018-11-04T19:53:53.144Z,12.77
2018-11-04T19:56:22.453Z,11.30
2018-11-04T19:58:51.632Z,10.97
2018-11-04T20:01:20.713Z,11.37
2018-11-04T20:03:50.336Z,10.53
2018-11-04T20:06:19.430Z,10.97
2018-11-04T20:08:54.166Z,12.80
2018-11-04T20:11:23.882Z,12.23
2018-11-04T20:13:58.567Z,11.17
2018-11-04T20:16:28.037Z,12.43
2018-11-04T20:19:03.813Z,11.83
2018-11-04T20:21:34.459Z,10.50
2018-11-04T20:24:08.798Z,12.33
2018-11-04T20:26:38.948Z,11.93
2018-11-04T20:29:07.994Z,12.97
2018-11-04T20:31:42.330Z,11.50
2018-11-04T20:34:11.495Z,12.47
2018-11-04T20:36:41.255Z,12.53
2018-11-04T20:39:15.725Z,12.37
2018-11-04T20:41:46.102Z,13.13
2018-11-04T20:44:15.172Z,12.13
2018-11-04T20:46:44.310Z,13.77
2018-11-04T20:49:19.128Z,13.27
2018-11-04T20:51:49.562Z,13.33
2018-11-04T20:54:18.673Z,12.50
2018-11-04T20:56:53.099Z,13.87
2018-11-04T20:59:22.498Z,12.50
2018-11-04T21:01:51.990Z,12.97
2018-11-04T21:04:21.031Z,13.50
2018-11-04T21:06:50.041Z,13.77
2018-11-04T21:09:19.142Z,14.13
2018-11-04T21:11:48.331Z,13.53
2018-11-04T21:14:17.440Z,14.03
2018-11-04T21:16:46.660Z,13.60
2018-11-04T21:19:15.451Z,13.37
2018-11-04T21:21:44.481Z,13.33
2018-11-04T21:24:13.378Z,14.43
2018-11-04T21:26:42.525Z,13.50
2018-11-04T21:29:12.032Z,13.93
2018-11-04T21:31:40.965Z,13.60
2018-11-04T21:34:10.034Z,12.07
2018-11-04T21:36:39.317Z,11.97
2018-11-04T21:39:09.547Z,12.83
2018-11-04T21:41:38.747Z,12.93
2018-11-04T21:44:08.556Z,12.10
2018-11-04T21:46:37.759Z,11.97
2018-11-04T21:49:06.787Z,11.40
2018-11-04T21:51:35.777Z,11.67
2018-11-04T21:54:04.901Z,11.93
2018-11-04T21:56:34.651Z,11.27
2018-11-04T21:59:04.109Z,11.63
2018-11-04T22:01:33.155Z,11.50
2018-11-04T22:04:02.332Z,11.33
2018-11-04T22:06:31.281Z,11.50
2018-11-04T22:09:00.244Z,10.90
2018-11-04T22:11:29.310Z,10.83
2018-11-04T22:13:58.386Z,11.23
2018-11-04T22:16:27.423Z,10.43
2018-11-04T22:18:56.539Z,10.27
2018-11-04T22:21:26.446Z,10.83
2018-11-04T22:23:56.149Z,11.33
2018-11-04T22:26:25.280Z,12.00
2018-11-04T22:28:54.417Z,9.83
2018-11-04T22:31:23.469Z,11.17
2018-11-04T22:33:52.579Z,11.73
2018-11-04T22:36:21.840Z,10.87
2018-11-04T22:38:51.042Z,11.43
2018-11-04T22:41:20.741Z,10.90
2018-11-04T22:43:50.059Z,10.17
2018-11-04T22:46:19.038Z,11.07
2018-11-04T22:48:48.113Z,11.13
2018-11-04T22:51:17.534Z,10.47
2018-11-04T22:53:47.018Z,11.20
2018-11-04T22:56:17.849Z,11.53
2018-11-04T22:58:47.671Z,12.30
2018-11-04T23:01:16.937Z,12.83
2018-11-04T23:03:45.940Z,11.50
2018-11-04T23:06:14.988Z,11.53
2018-11-04T23:08:44.094Z,11.73
2018-11-04T23:11:13.117Z,11.80
2018-11-04T23:13:42.291Z,11.30
2018-11-04T23:16:11.327Z,12.30
2018-11-04T23:18:40.513Z,11.27
2018-11-04T23:21:10.495Z,11.53
2018-11-04T23:23:39.518Z,12.13
2018-11-04T23:26:08.876Z,12.47
2018-11-04T23:28:38.015Z,11.03
2018-11-04T23:31:07.022Z,11.27
2018-11-04T23:33:36.141Z,11.17
2018-11-04T23:36:05.789Z,11.50
2018-11-04T23:38:34.849Z,10.20
2018-11-04T23:41:04.061Z,10.47
2018-11-04T23:43:33.057Z,10.40
2018-11-04T23:46:02.191Z,10.83
2018-11-04T23:48:31.251Z,10.10
2018-11-04T23:51:00.379Z,11.70
2018-11-04T23:53:29.699Z,11.17
2018-11-04T23:55:59.513Z,10.77
2018-11-04T23:58:28.663Z,12.03
